Time;durP1;ratioP1;P1;durP2;ratioP2;P2;SDS_P1;SDS_P2;PMS_P1;PMS_P2;Temp;Humidity;BMP_temperature;BMP_pressure;BME280_temperature;BME280_humidity;BME280_pressure;Samples;Min_cycle;Max_cycle;Signal;HPM_P1;HPM_P2
2023/04/10 04:51:49;;;;;;;25.53;23.53;;;4.30;99.90;;;;;;5177314;23;20491;-78
2023/04/10 04:54:16;;;;;;;24.10;22.10;;;4.30;99.90;;;;;;4929609;29;20509;-77
2023/04/10 04:56:43;;;;;;;25.13;23.03;;;4.30;99.90;;;;;;4930933;29;20941;-75
2023/04/10 04:59:09;;;;;;;25.50;23.20;;;4.40;99.90;;;;;;4928436;29;20459;-75
2023/04/10 05:01:36;;;;;;;26.10;23.90;;;4.40;99.90;;;;;;4919804;29;20521;-76
2023/04/10 05:04:03;;;;;;;25.57;23.47;;;4.40;99.90;;;;;;4920804;29;20489;-77
2023/04/10 05:06:30;;;;;;;26.97;24.57;;;4.50;99.90;;;;;;4928316;29;20874;-76
2023/04/10 05:08:58;;;;;;;24.73;22.57;;;4.50;99.90;;;;;;4931811;29;20977;-76
2023/04/10 05:11:25;;;;;;;24.13;22.23;;;4.50;99.90;;;;;;4931855;29;20781;-77
2023/04/10 05:13:51;;;;;;;26.97;24.67;;;4.60;99.90;;;;;;4931452;29;20565;-76
2023/04/10 05:16:18;;;;;;;25.53;23.37;;;4.60;99.90;;;;;;4931198;29;20513;-76
2023/04/10 05:18:46;;;;;;;26.87;24.47;;;4.70;99.90;;;;;;4931140;29;20451;-77
2023/04/10 05:21:12;;;;;;;27.27;24.83;;;4.90;99.90;;;;;;4930702;29;20879;-77
2023/04/10 05:23:39;;;;;;;26.33;24.00;;;5.00;99.90;;;;;;4930772;29;20501;-77
2023/04/10 05:26:07;;;;;;;26.33;24.27;;;4.90;99.90;;;;;;4930613;29;20450;-76
2023/04/10 05:28:34;;;;;;;24.87;22.83;;;5.10;99.90;;;;;;4930860;29;20531;-76
2023/04/10 05:31:01;;;;;;;25.23;22.90;;;5.20;99.90;;;;;;4930938;29;20820;-76
2023/04/10 05:33:27;;;;;;;23.60;21.60;;;5.30;99.90;;;;;;4930853;29;20473;-77
2023/04/10 05:35:55;;;;;;;24.07;22.07;;;5.50;99.90;;;;;;4930508;29;20496;-77
2023/04/10 05:38:22;;;;;;;24.00;22.00;;;5.60;99.90;;;;;;4930610;29;20460;-76
2023/04/10 05:40:48;;;;;;;22.73;20.70;;;5.60;99.90;;;;;;4931734;29;20795;-76
2023/04/10 05:43:16;;;;;;;21.30;19.47;;;5.80;99.90;;;;;;4934285;29;20545;-73
2023/04/10 05:45:44;;;;;;;23.93;21.87;;;6.20;99.90;;;;;;4934287;29;20457;-76
2023/04/10 05:48:10;;;;;;;22.97;21.13;;;6.60;99.90;;;;;;4934195;29;21035;-76
2023/04/10 05:50:37;;;;;;;23.93;22.03;;;6.80;99.90;;;;;;4933578;29;20481;-76
2023/04/10 05:53:04;;;;;;;22.57;20.73;;;7.10;99.90;;;;;;4934222;29;20453;-76
2023/04/10 05:55:31;;;;;;;23.50;21.60;;;7.50;99.90;;;;;;4933690;29;20461;-74
2023/04/10 05:57:57;;;;;;;20.73;18.83;;;7.90;99.90;;;;;;4935870;29;20488;-74
2023/04/10 06:00:26;;;;;;;21.73;20.00;;;8.40;99.90;;;;;;4933798;29;20457;-76
2023/04/10 06:02:52;;;;;;;20.90;19.30;;;8.90;99.90;;;;;;4933571;29;20511;-77
2023/04/10 06:05:19;;;;;;;21.33;19.63;;;9.30;99.90;;;;;;4933410;29;20460;-74
2023/04/10 06:07:46;;;;;;;21.20;19.50;;;9.70;99.90;;;;;;4933726;29;20960;-75
2023/04/10 06:10:13;;;;;;;18.70;17.30;;;10.00;99.90;;;;;;4933414;29;20464;-72
2023/04/10 06:12:40;;;;;;;21.53;19.83;;;9.80;99.90;;;;;;4933743;29;20461;-75
2023/04/10 06:15:08;;;;;;;21.10;19.60;;;9.80;99.90;;;;;;4933720;29;20496;-74
2023/04/10 06:17:42;;;;;;;20.23;18.73;;;10.00;99.90;;;;;;4934002;29;20453;-73
2023/04/10 06:20:10;;;;;;;22.37;20.67;;;10.20;99.90;;;;;;4933506;29;20988;-76
2023/04/10 06:22:36;;;;;;;18.73;17.30;;;10.40;99.90;;;;;;4933804;29;20481;-74
2023/04/10 06:25:04;;;;;;;20.60;18.60;;;10.40;99.90;;;;;;4933683;29;20454;-75
2023/04/10 06:27:31;;;;;;;22.60;20.77;;;10.70;99.90;;;;;;4933537;29;20936;-74
2023/04/10 06:29:57;;;;;;;19.90;18.37;;;10.90;99.90;;;;;;4933209;29;20495;-77
2023/04/10 06:32:24;;;;;;;20.60;19.00;;;11.10;99.90;;;;;;4926752;29;20509;-78
2023/04/10 06:34:52;;;;;;;19.23;17.93;;;11.10;99.90;;;;;;4922168;29;20455;-78
2023/04/10 06:37:19;;;;;;;21.23;19.47;;;11.00;99.90;;;;;;4921928;29;20541;-77
2023/04/10 06:39:46;;;;;;;21.80;20.20;;;10.90;99.90;;;;;;4923664;29;20442;-78
2023/04/10 06:42:12;;;;;;;22.17;20.40;;;11.20;99.90;;;;;;4918264;29;20458;-77
2023/04/10 06:44:39;;;;;;;21.20;19.70;;;10.80;99.90;;;;;;4918067;29;20501;-76
2023/04/10 06:47:07;;;;;;;20.60;18.93;;;11.10;99.90;;;;;;4922169;29;20511;-77
2023/04/10 06:49:34;;;;;;;20.30;18.63;;;11.60;99.90;;;;;;4921359;29;20525;-78
2023/04/10 06:52:02;;;;;;;22.50;20.80;;;12.10;98.30;;;;;;4931997;29;20898;-79
2023/04/10 06:54:29;;;;;;;23.50;21.40;;;12.40;97.40;;;;;;4932641;29;20516;-78
2023/04/10 06:56:57;;;;;;;21.07;19.57;;;12.60;96.30;;;;;;4933084;29;20465;-78
2023/04/10 06:59:24;;;;;;;19.97;18.53;;;13.00;95.70;;;;;;4932845;29;20492;-78
2023/04/10 07:01:51;;;;;;;21.57;20.00;;;13.40;94.40;;;;;;4933123;29;20475;-78
2023/04/10 07:04:17;;;;;;;22.47;20.93;;;13.50;94.00;;;;;;4932933;29;20496;-78
2023/04/10 07:06:44;;;;;;;21.20;19.70;;;14.00;93.40;;;;;;4932691;29;20462;-78
2023/04/10 07:09:12;;;;;;;19.57;18.10;;;14.00;92.30;;;;;;4932623;29;20580;-78
2023/04/10 07:11:39;;;;;;;22.57;20.87;;;14.20;93.10;;;;;;4932605;29;20473;-77
2023/04/10 07:14:05;;;;;;;20.30;18.87;;;14.30;92.00;;;;;;4932608;29;20517;-79
2023/04/10 07:16:32;;;;;;;20.30;18.80;;;15.20;90.70;;;;;;4932716;29;21128;-79
2023/04/10 07:18:59;;;;;;;19.50;18.20;;;16.00;88.60;;;;;;4932602;29;20460;-79
2023/04/10 07:21:26;;;;;;;19.20;17.90;;;16.70;84.00;;;;;;4932252;29;20450;-78
2023/04/10 07:23:53;;;;;;;19.33;18.10;;;16.90;82.40;;;;;;4932488;29;20932;-79
2023/04/10 07:26:21;;;;;;;21.60;20.23;;;17.40;78.30;;;;;;4932583;29;20461;-79
2023/04/10 07:28:48;;;;;;;18.63;17.27;;;17.50;76.10;;;;;;4932555;29;20472;-79
2023/04/10 07:31:16;;;;;;;19.70;18.40;;;17.30;77.40;;;;;;4932338;29;20454;-79
2023/04/10 07:33:43;;;;;;;19.13;17.73;;;17.30;76.90;;;;;;4932482;29;20462;-78
2023/04/10 07:36:10;;;;;;;19.87;18.57;;;17.90;75.20;;;;;;4932018;29;20464;-77
2023/04/10 07:38:37;;;;;;;19.73;18.53;;;18.60;73.40;;;;;;4931767;29;20457;-78
2023/04/10 07:41:04;;;;;;;19.40;18.13;;;19.30;70.90;;;;;;4932097;29;20484;-79
2023/04/10 07:43:32;;;;;;;19.20;17.80;;;19.90;67.90;;;;;;4932096;29;20600;-79
2023/04/10 07:45:59;;;;;;;20.03;18.93;;;19.90;66.00;;;;;;4932271;29;20472;-78
2023/04/10 07:48:26;;;;;;;20.97;19.47;;;20.30;63.90;;;;;;4932341;29;20462;-79
2023/04/10 07:50:53;;;;;;;20.23;19.03;;;20.50;63.60;;;;;;4931747;29;20485;-80
2023/04/10 07:53:20;;;;;;;19.57;18.50;;;20.50;62.40;;;;;;4932374;29;20526;-79
2023/04/10 07:55:47;;;;;;;17.23;16.13;;;20.50;61.40;;;;;;4932619;29;20564;-79
2023/04/10 07:58:14;;;;;;;17.80;16.70;;;20.50;60.10;;;;;;4922675;29;20513;-79
2023/04/10 08:00:43;;;;;;;18.40;17.30;;;20.20;60.60;;;;;;4922348;29;20465;-85
2023/04/10 08:03:11;;;;;;;16.70;15.67;;;21.10;58.70;;;;;;4917489;29;20802;-77
2023/04/10 08:06:11;;;;;;;;;;;;;;;;;;;;;
2023/04/10 08:08:39;;;;;;;18.97;17.97;;;21.90;56.20;;;;;;4913485;29;20780;-79
2023/04/10 08:11:08;;;;;;;16.80;15.80;;;22.70;55.00;;;;;;4932082;29;20484;-79
2023/04/10 08:13:34;;;;;;;15.70;14.90;;;22.50;54.30;;;;;;4928782;29;20455;-79
2023/04/10 08:16:03;;;;;;;14.93;14.20;;;22.10;52.40;;;;;;4913077;29;20461;-78
2023/04/10 08:18:29;;;;;;;15.60;14.77;;;20.40;53.50;;;;;;4913007;29;20466;-80
2023/04/10 08:20:56;;;;;;;15.13;14.43;;;19.10;56.00;;;;;;4912874;29;20721;-79
2023/04/10 08:23:23;;;;;;;13.70;13.00;;;18.70;56.10;;;;;;4912704;29;20463;-75
2023/04/10 08:25:50;;;;;;;13.93;13.23;;;18.40;56.90;;;;;;4920182;29;20455;-75
2023/04/10 08:28:18;;;;;;;15.30;14.43;;;18.30;56.30;;;;;;4915727;29;20540;-76
2023/04/10 08:30:44;;;;;;;14.17;13.47;;;18.00;57.50;;;;;;4926191;29;20453;-76
2023/04/10 08:33:12;;;;;;;14.70;13.90;;;18.60;57.70;;;;;;4924681;29;20501;-75
2023/04/10 08:35:39;;;;;;;12.90;12.20;;;19.30;56.70;;;;;;4921165;29;20485;-76
2023/04/10 08:38:06;;;;;;;13.73;13.00;;;19.40;55.80;;;;;;4919592;29;20454;-75
2023/04/10 08:40:37;;;;;;;13.30;12.60;;;19.30;55.20;;;;;;4921242;29;20458;-75
2023/04/10 08:43:04;;;;;;;12.87;12.17;;;19.40;54.80;;;;;;4922020;29;20461;-76
2023/04/10 08:45:31;;;;;;;13.47;12.77;;;19.30;55.20;;;;;;4919725;29;20490;-76
2023/04/10 08:48:00;;;;;;;13.23;12.57;;;19.20;55.20;;;;;;4919804;29;20797;-76
2023/04/10 08:50:34;;;;;;;14.37;13.67;;;19.30;54.50;;;;;;4920975;29;20457;-75
2023/04/10 08:53:05;;;;;;;14.07;13.47;;;19.40;54.80;;;;;;4901013;29;21071;-77
2023/04/10 08:55:32;;;;;;;14.33;13.63;;;19.50;54.20;;;;;;4891061;29;20550;-76
2023/04/10 08:58:00;;;;;;;13.30;12.70;;;19.40;53.80;;;;;;4892439;29;20459;-77
2023/04/10 09:00:27;;;;;;;13.60;13.00;;;19.30;54.60;;;;;;4893049;29;20535;-76
2023/04/10 09:02:56;;;;;;;13.03;12.43;;;19.30;53.60;;;;;;4890893;29;20467;-76
2023/04/10 09:05:25;;;;;;;15.00;14.20;;;19.20;53.20;;;;;;4892468;29;20495;-75
2023/04/10 09:07:53;;;;;;;13.77;13.07;;;18.50;53.50;;;;;;4892549;29;20463;-75
2023/04/10 09:10:19;;;;;;;13.40;12.70;;;18.40;54.20;;;;;;4892738;29;20840;-76
2023/04/10 09:12:47;;;;;;;13.47;12.80;;;18.60;54.00;;;;;;4892857;29;20463;-76
2023/04/10 09:15:14;;;;;;;13.03;12.43;;;19.10;53.30;;;;;;4894154;29;20451;-76
2023/04/10 09:17:56;;;;;;;13.80;13.20;;;19.50;53.40;;;;;;4896367;29;20461;-76
2023/04/10 09:20:24;;;;;;;13.70;13.00;;;19.80;52.50;;;;;;4896501;29;20904;-76
2023/04/10 09:22:52;;;;;;;12.50;11.90;;;19.40;52.70;;;;;;4896043;29;20953;-75
2023/04/10 09:25:30;;;;;;;14.60;13.90;;;19.60;52.60;;;;;;4896439;29;20490;-76
2023/04/10 09:28:01;;;;;;;13.53;12.73;;;19.70;52.30;;;;;;4896366;29;20894;-76
2023/04/10 09:30:34;;;;;;;12.97;12.37;;;20.50;50.50;;;;;;4896232;29;20466;-76
2023/04/10 09:33:01;;;;;;;13.13;12.53;;;20.70;49.30;;;;;;4896704;29;20487;-77
2023/04/10 09:35:36;;;;;;;13.40;12.80;;;20.70;49.50;;;;;;4896544;29;20483;-76
2023/04/10 09:38:16;;;;;;;13.03;12.43;;;20.70;49.30;;;;;;4896826;29;20805;-77
2023/04/10 09:40:43;;;;;;;12.53;12.03;;;20.50;49.20;;;;;;4895941;29;20542;-76
2023/04/10 09:43:21;;;;;;;12.23;11.63;;;20.30;48.70;;;;;;4895925;29;20727;-74
2023/04/10 09:45:50;;;;;;;11.37;10.87;;;20.70;48.10;;;;;;4896373;29;20495;-77
2023/04/10 09:48:17;;;;;;;12.60;12.10;;;19.90;48.60;;;;;;4896210;29;20791;-74
2023/04/10 09:50:44;;;;;;;12.80;12.20;;;20.10;48.20;;;;;;4895503;29;20475;-75
2023/04/10 09:53:12;;;;;;;12.47;11.87;;;20.50;48.10;;;;;;4895674;29;20462;-74
2023/04/10 09:55:41;;;;;;;11.67;11.17;;;20.40;47.00;;;;;;4895602;29;20447;-76
2023/04/10 09:58:09;;;;;;;13.17;12.67;;;19.90;47.60;;;;;;4895510;29;20463;-75
2023/04/10 10:00:39;;;;;;;12.87;12.37;;;20.10;48.50;;;;;;4895525;29;20470;-76
2023/04/10 10:03:09;;;;;;;12.37;11.67;;;20.80;47.00;;;;;;4895442;29;20459;-75
2023/04/10 10:05:37;;;;;;;11.43;10.93;;;20.30;46.70;;;;;;4895442;29;20490;-75
2023/04/10 10:08:03;;;;;;;13.07;12.50;;;20.30;47.20;;;;;;4895458;29;20542;-75
2023/04/10 10:10:30;;;;;;;12.53;12.03;;;20.00;47.40;;;;;;4895592;29;20645;-75
2023/04/10 10:13:01;;;;;;;12.50;12.00;;;20.20;47.90;;;;;;4895068;29;20467;-75
2023/04/10 10:15:35;;;;;;;11.30;10.90;;;19.90;47.10;;;;;;4895376;29;20553;-76
2023/04/10 10:18:05;;;;;;;11.90;11.40;;;20.10;47.00;;;;;;4895332;29;20786;-75
2023/04/10 10:20:34;;;;;;;12.20;11.70;;;20.10;47.20;;;;;;4895173;29;20531;-75
2023/04/10 10:23:03;;;;;;;12.77;12.20;;;19.90;47.00;;;;;;4895318;29;20507;-76
2023/04/10 10:25:30;;;;;;;10.93;10.43;;;19.50;47.30;;;;;;4894899;29;20626;-75
2023/04/10 10:28:01;;;;;;;11.60;11.20;;;20.20;47.80;;;;;;4894570;29;20450;-75
2023/04/10 10:30:28;;;;;;;12.37;11.87;;;20.30;46.60;;;;;;4894955;29;20475;-75
2023/04/10 10:32:55;;;;;;;11.40;10.93;;;20.40;46.40;;;;;;4895206;29;20515;-76
2023/04/10 10:35:24;;;;;;;11.00;10.50;;;21.20;46.10;;;;;;4895399;29;20460;-77
2023/04/10 10:37:51;;;;;;;11.33;10.83;;;21.60;44.50;;;;;;4895339;29;20776;-75
2023/04/10 10:40:21;;;;;;;12.93;12.43;;;21.40;44.60;;;;;;4895183;29;20463;-75
2023/04/10 10:42:57;;;;;;;12.17;11.77;;;21.50;44.80;;;;;;4895098;29;20467;-74
2023/04/10 10:45:32;;;;;;;12.80;12.30;;;22.00;43.30;;;;;;4894514;29;20487;-74
2023/04/10 10:47:59;;;;;;;12.63;12.13;;;22.30;43.70;;;;;;4894798;29;20459;-74
2023/04/10 10:50:55;;;;;;;13.00;12.50;;;22.30;43.10;;;;;;4894534;29;20522;-74
2023/04/10 10:53:33;;;;;;;12.03;11.63;;;22.10;43.30;;;;;;4894696;29;20458;-74
2023/04/10 10:56:21;;;;;;;12.57;12.07;;;22.20;42.30;;;;;;4894816;29;20542;-76
2023/04/10 10:58:50;;;;;;;11.47;11.07;;;21.40;43.20;;;;;;4894925;29;20491;-75
2023/04/10 11:01:20;;;;;;;11.60;11.00;;;21.00;43.90;;;;;;4894828;29;20487;-75
2023/04/10 11:03:47;;;;;;;12.10;11.60;;;21.40;43.90;;;;;;4894999;29;20506;-74
2023/04/10 11:06:18;;;;;;;12.03;11.63;;;21.40;43.90;;;;;;4894511;29;20507;-75
2023/04/10 11:08:46;;;;;;;12.07;11.57;;;21.30;43.60;;;;;;4894596;29;20451;-75
2023/04/10 11:11:18;;;;;;;11.20;10.80;;;21.20;42.90;;;;;;4894739;29;20463;-75
2023/04/10 11:14:16;;;;;;;12.90;12.40;;;20.90;42.20;;;;;;4894674;29;20870;-75
2023/04/10 11:16:46;;;;;;;11.80;11.40;;;20.60;41.50;;;;;;4894457;29;20459;-76
2023/04/10 11:19:16;;;;;;;11.80;11.40;;;21.20;43.00;;;;;;4894363;29;20463;-76
2023/04/10 11:22:14;;;;;;;12.33;11.83;;;22.30;41.30;;;;;;4894734;29;20459;-76
2023/04/10 11:25:01;;;;;;;11.77;11.27;;;23.00;40.40;;;;;;4862508;29;20490;-76
2023/04/10 11:27:43;;;;;;;13.40;12.90;;;22.90;39.30;;;;;;4894459;29;20466;-76
2023/04/10 11:30:32;;;;;;;9.80;9.40;;;22.30;39.50;;;;;;4894322;29;20486;-75
2023/04/10 11:33:01;;;;;;;11.47;11.00;;;22.20;39.80;;;;;;4894162;29;20459;-76
2023/04/10 11:35:30;;;;;;;11.30;10.90;;;23.90;39.30;;;;;;4893975;29;20527;-76
2023/04/10 11:38:14;;;;;;;12.40;12.00;;;24.40;38.20;;;;;;4893183;29;20555;-74
2023/04/10 11:41:02;;;;;;;11.70;11.23;;;23.80;37.20;;;;;;4893956;29;20559;-74
2023/04/10 11:43:30;;;;;;;11.10;10.67;;;23.60;37.40;;;;;;4893866;29;20451;-74
2023/04/10 11:46:01;;;;;;;13.00;12.50;;;23.40;38.20;;;;;;4893698;29;20598;-75
2023/04/10 11:48:29;;;;;;;11.53;11.13;;;23.30;37.40;;;;;;4893410;29;20458;-75
2023/04/10 11:50:56;;;;;;;12.93;12.50;;;24.20;36.10;;;;;;4893514;29;20550;-75
2023/04/10 11:53:25;;;;;;;10.00;9.63;;;25.60;34.30;;;;;;4893639;29;20460;-75
2023/04/10 11:55:52;;;;;;;10.43;10.13;;;25.30;31.50;;;;;;4893744;29;20562;-76
2023/04/10 11:58:23;;;;;;;10.80;10.40;;;24.20;31.00;;;;;;4893574;29;20451;-75
2023/04/10 12:00:59;;;;;;;9.97;9.67;;;23.10;31.50;;;;;;4893619;29;20491;-75
2023/04/10 12:03:35;;;;;;;10.13;9.83;;;22.80;33.00;;;;;;4893365;29;21202;-74
2023/04/10 12:06:02;;;;;;;10.40;10.00;;;23.20;31.00;;;;;;4893519;29;20557;-74
2023/04/10 12:08:33;;;;;;;9.10;8.80;;;23.30;30.00;;;;;;4893445;29;20464;-75
2023/04/10 12:11:01;;;;;;;12.23;11.83;;;23.20;30.20;;;;;;4893774;29;20832;-75
2023/04/10 12:13:28;;;;;;;10.53;10.13;;;23.50;30.00;;;;;;4893434;29;20463;-74
2023/04/10 12:15:58;;;;;;;10.27;9.97;;;23.40;29.40;;;;;;4893462;29;20447;-74
2023/04/10 12:18:26;;;;;;;10.23;9.93;;;23.00;30.00;;;;;;4893452;29;20455;-75
2023/04/10 12:20:55;;;;;;;9.00;8.70;;;22.80;30.70;;;;;;4893265;29;20546;-75
2023/04/10 12:23:23;;;;;;;9.90;9.60;;;22.90;30.50;;;;;;4893317;29;20487;-76
2023/04/10 12:25:50;;;;;;;9.40;9.10;;;22.10;30.80;;;;;;4893231;29;20494;-75
2023/04/10 12:28:18;;;;;;;9.93;9.63;;;21.90;31.00;;;;;;4893600;29;20798;-74
2023/04/10 12:30:51;;;;;;;10.73;10.33;;;21.80;31.20;;;;;;4893690;29;20487;-74
2023/04/10 12:33:21;;;;;;;11.77;11.37;;;21.80;31.00;;;;;;4893639;29;20463;-74
2023/04/10 12:35:48;;;;;;;10.40;10.10;;;21.70;31.50;;;;;;4893540;29;20459;-75
2023/04/10 12:38:16;;;;;;;9.87;9.57;;;22.00;32.10;;;;;;4893471;29;20462;-73
2023/04/10 12:40:58;;;;;;;10.40;10.10;;;22.10;31.70;;;;;;4893253;29;20455;-73
2023/04/10 12:43:32;;;;;;;10.57;10.27;;;22.10;31.80;;;;;;4893223;29;20504;-74
2023/04/10 12:45:59;;;;;;;10.80;10.40;;;22.10;32.00;;;;;;4893477;29;20589;-74
2023/04/10 12:48:26;;;;;;;10.60;10.20;;;22.00;32.20;;;;;;4893349;29;20502;-74
2023/04/10 12:50:53;;;;;;;9.57;9.27;;;21.50;32.60;;;;;;4892792;29;20491;-74
2023/04/10 12:53:21;;;;;;;10.60;10.30;;;21.40;33.40;;;;;;4893630;29;20566;-74
2023/04/10 12:56:01;;;;;;;10.53;10.20;;;21.90;33.40;;;;;;4893506;29;20546;-74
2023/04/10 12:58:30;;;;;;;9.97;9.67;;;21.60;33.00;;;;;;4893191;29;20459;-74
2023/04/10 13:00:57;;;;;;;11.10;10.80;;;21.40;33.00;;;;;;4893113;29;20474;-74
2023/04/10 13:03:24;;;;;;;11.67;11.27;;;20.90;33.30;;;;;;4893579;29;20474;-74
2023/04/10 13:05:52;;;;;;;11.27;10.93;;;20.80;33.70;;;;;;4893050;29;21088;-74
2023/04/10 13:08:18;;;;;;;10.50;10.10;;;20.80;34.40;;;;;;4893116;29;20559;-74
2023/04/10 13:10:47;;;;;;;9.70;9.30;;;20.60;34.00;;;;;;4893197;29;20467;-73
2023/04/10 13:13:14;;;;;;;9.90;9.60;;;20.60;34.30;;;;;;4893115;29;20542;-74
2023/04/10 13:15:41;;;;;;;10.37;10.07;;;20.70;34.90;;;;;;4892943;29;20890;-74
2023/04/10 13:18:09;;;;;;;10.60;10.30;;;20.90;35.00;;;;;;4892991;29;20460;-74
2023/04/10 13:20:36;;;;;;;10.57;10.17;;;20.80;34.40;;;;;;4892945;29;20459;-74
2023/04/10 13:23:03;;;;;;;9.57;9.27;;;20.70;34.70;;;;;;4893505;29;20830;-74
2023/04/10 13:25:32;;;;;;;9.90;9.60;;;20.70;34.70;;;;;;4893002;29;20637;-74
2023/04/10 13:28:01;;;;;;;9.77;9.47;;;20.70;34.70;;;;;;4893009;29;21010;-74
2023/04/10 13:30:28;;;;;;;10.00;9.60;;;20.70;34.80;;;;;;4892840;29;20451;-74
2023/04/10 13:32:54;;;;;;;9.97;9.67;;;20.80;34.50;;;;;;4892796;29;20462;-75
2023/04/10 13:35:21;;;;;;;11.30;10.90;;;21.00;34.20;;;;;;4892746;29;21014;-74
2023/04/10 13:37:51;;;;;;;10.00;9.60;;;21.30;34.40;;;;;;4893146;29;20459;-74
2023/04/10 13:40:18;;;;;;;9.90;9.60;;;21.30;34.60;;;;;;4893160;29;20482;-73
2023/04/10 13:42:45;;;;;;;10.30;9.90;;;21.50;34.50;;;;;;4892765;29;20454;-74
2023/04/10 13:45:14;;;;;;;10.27;9.97;;;21.80;34.30;;;;;;4892470;29;20570;-74
2023/04/10 13:47:40;;;;;;;9.90;9.60;;;21.70;33.60;;;;;;4892702;29;20762;-74
2023/04/10 13:50:08;;;;;;;10.40;10.00;;;21.40;34.50;;;;;;4892563;29;20487;-74
2023/04/10 13:52:35;;;;;;;10.93;10.53;;;21.80;35.00;;;;;;4892700;29;20487;-74
2023/04/10 13:55:01;;;;;;;10.93;10.53;;;22.00;34.30;;;;;;4893044;29;20503;-74
2023/04/10 13:57:28;;;;;;;10.90;10.50;;;22.90;34.10;;;;;;4892645;29;20463;-74
2023/04/10 13:59:55;;;;;;;12.27;11.87;;;22.70;33.40;;;;;;4892666;29;20825;-73
2023/04/10 14:02:23;;;;;;;9.57;9.27;;;21.60;33.50;;;;;;4893951;29;20452;-74
2023/04/10 14:04:50;;;;;;;9.93;9.63;;;21.30;34.10;;;;;;4896341;29;20459;-73
2023/04/10 14:07:18;;;;;;;10.53;10.17;;;21.00;34.40;;;;;;4896295;29;20842;-75
2023/04/10 14:09:46;;;;;;;11.70;11.30;;;20.70;35.20;;;;;;4896037;29;20459;-74
2023/04/10 14:12:15;;;;;;;12.17;11.77;;;20.90;35.10;;;;;;4895677;29;20451;-73
2023/04/10 14:14:41;;;;;;;8.57;8.27;;;20.80;35.10;;;;;;4895403;29;20467;-73
2023/04/10 14:17:08;;;;;;;8.77;8.47;;;20.80;35.00;;;;;;4895090;29;20511;-73
2023/04/10 14:19:37;;;;;;;8.30;8.00;;;20.90;35.30;;;;;;4895434;29;20469;-75
2023/04/10 14:22:04;;;;;;;8.80;8.50;;;20.80;35.80;;;;;;4895474;29;20859;-76
2023/04/10 14:24:31;;;;;;;9.90;9.60;;;21.10;35.20;;;;;;4895654;29;20467;-75
2023/04/10 14:27:00;;;;;;;9.80;9.30;;;21.10;34.80;;;;;;4895132;29;20494;-75
2023/04/10 14:29:26;;;;;;;8.87;8.57;;;20.70;35.50;;;;;;4894782;29;20485;-74
2023/04/10 14:31:53;;;;;;;11.20;10.80;;;20.60;36.10;;;;;;4895032;29;20467;-75
2023/04/10 14:34:20;;;;;;;9.27;8.97;;;20.90;35.80;;;;;;4895613;29;20468;-75
2023/04/10 14:36:48;;;;;;;9.97;9.67;;;20.80;35.50;;;;;;4895281;29;20510;-76
2023/04/10 14:39:15;;;;;;;8.90;8.60;;;20.70;35.80;;;;;;4896568;29;20538;-76
2023/04/10 14:41:41;;;;;;;10.73;10.33;;;20.50;36.50;;;;;;4914226;29;20462;-76
2023/04/10 14:44:08;;;;;;;10.27;9.97;;;20.30;36.70;;;;;;4913865;29;20458;-76
2023/04/10 14:46:35;;;;;;;9.17;8.80;;;20.40;36.90;;;;;;4913647;29;20527;-76
2023/04/10 14:49:01;;;;;;;9.40;9.10;;;20.30;37.00;;;;;;4913456;29;20477;-77
2023/04/10 14:51:28;;;;;;;10.50;10.10;;;20.60;37.00;;;;;;4913584;29;20494;-77
2023/04/10 14:53:56;;;;;;;10.87;10.37;;;20.70;36.90;;;;;;4913678;29;20635;-76
2023/04/10 14:56:23;;;;;;;10.10;9.80;;;20.30;36.80;;;;;;4908158;29;20510;-77
2023/04/10 14:58:49;;;;;;;9.43;9.10;;;20.20;36.90;;;;;;4913390;29;20836;-76
2023/04/10 15:01:16;;;;;;;9.67;9.27;;;20.20;37.60;;;;;;4913610;29;20484;-76
2023/04/10 15:03:46;;;;;;;9.67;9.27;;;20.20;37.10;;;;;;4913406;29;20477;-78
2023/04/10 15:06:13;;;;;;;10.90;10.50;;;20.20;37.30;;;;;;4913100;29;20493;-78
2023/04/10 15:08:40;;;;;;;9.33;9.03;;;20.30;37.00;;;;;;4912734;29;21066;-78
2023/04/10 15:11:08;;;;;;;10.23;9.83;;;20.30;37.20;;;;;;4912833;29;20455;-77
2023/04/10 15:13:36;;;;;;;8.70;8.40;;;20.50;37.30;;;;;;4913035;29;20451;-77
2023/04/10 15:16:03;;;;;;;8.67;8.37;;;20.30;37.40;;;;;;4913495;29;20466;-77
2023/04/10 15:18:30;;;;;;;9.40;9.10;;;20.20;37.70;;;;;;4913539;29;20517;-76
2023/04/10 15:20:57;;;;;;;8.40;8.10;;;20.10;37.70;;;;;;4913352;29;21005;-76
2023/04/10 15:23:23;;;;;;;10.23;9.83;;;20.10;37.60;;;;;;4913524;29;20454;-77
2023/04/10 15:25:51;;;;;;;10.67;10.27;;;20.10;38.10;;;;;;4913387;29;20557;-77
2023/04/10 15:28:19;;;;;;;10.97;10.57;;;20.20;38.00;;;;;;4913853;29;20461;-76
2023/04/10 15:30:47;;;;;;;9.63;9.23;;;20.10;37.90;;;;;;4913910;29;20493;-76
2023/04/10 15:33:14;;;;;;;9.40;9.03;;;20.00;38.10;;;;;;4913304;29;20510;-76
2023/04/10 15:35:41;;;;;;;10.63;10.13;;;19.80;38.10;;;;;;4913475;29;20453;-76
2023/04/10 15:38:08;;;;;;;10.00;9.70;;;19.80;38.40;;;;;;4913636;29;20517;-76
2023/04/10 15:40:34;;;;;;;10.70;10.30;;;19.70;38.80;;;;;;4913572;29;20976;-76
2023/04/10 15:43:01;;;;;;;9.97;9.57;;;19.60;39.30;;;;;;4913182;29;20494;-75
2023/04/10 15:45:29;;;;;;;10.27;9.80;;;19.80;39.70;;;;;;4913067;29;20550;-76
2023/04/10 15:47:57;;;;;;;10.43;10.03;;;19.80;39.40;;;;;;4913050;29;20494;-76
2023/04/10 15:50:24;;;;;;;9.77;9.47;;;19.70;40.20;;;;;;4912908;29;20812;-76
2023/04/10 15:52:50;;;;;;;10.40;10.00;;;19.60;40.40;;;;;;4912926;29;20489;-76
2023/04/10 15:55:17;;;;;;;11.27;10.97;;;19.70;41.10;;;;;;4913071;29;20458;-76
2023/04/10 15:57:44;;;;;;;11.80;11.40;;;19.60;41.00;;;;;;4907722;29;20475;-76
2023/04/10 16:00:12;;;;;;;11.27;10.87;;;19.50;40.90;;;;;;4913064;29;20471;-76
2023/04/10 16:02:40;;;;;;;10.53;10.13;;;19.40;41.30;;;;;;4912791;29;20451;-76
2023/04/10 16:05:08;;;;;;;10.47;10.07;;;19.50;41.50;;;;;;4912608;29;20505;-76
2023/04/10 16:07:36;;;;;;;10.47;10.00;;;19.40;42.30;;;;;;4913060;29;20913;-76
2023/04/10 16:10:04;;;;;;;10.70;10.30;;;19.30;42.40;;;;;;4913114;29;20466;-75
2023/04/10 16:12:30;;;;;;;11.63;11.23;;;19.30;42.50;;;;;;4912842;29;20482;-76
2023/04/10 16:14:57;;;;;;;10.80;10.40;;;19.30;42.90;;;;;;4912728;29;20454;-76
2023/04/10 16:17:27;;;;;;;10.10;9.70;;;19.30;43.10;;;;;;4912589;29;20538;-76
2023/04/10 16:19:55;;;;;;;9.70;9.30;;;19.10;43.40;;;;;;4912542;29;20664;-76
2023/04/10 16:22:22;;;;;;;11.10;10.70;;;19.10;43.90;;;;;;4912559;29;20827;-76
2023/04/10 16:24:49;;;;;;;11.00;10.53;;;19.10;44.00;;;;;;4912253;29;20489;-76
2023/04/10 16:27:16;;;;;;;11.33;10.83;;;19.00;44.10;;;;;;4912833;29;20493;-75
2023/04/10 16:29:43;;;;;;;10.87;10.47;;;18.90;44.40;;;;;;4912493;29;20453;-76
2023/04/10 16:32:10;;;;;;;12.90;12.40;;;18.90;44.40;;;;;;4912362;29;20465;-76
2023/04/10 16:34:37;;;;;;;10.73;10.30;;;18.90;44.70;;;;;;4912370;29;20458;-76
2023/04/10 16:37:05;;;;;;;8.83;8.43;;;18.90;44.90;;;;;;4924188;29;20457;-76
2023/04/10 16:39:31;;;;;;;11.00;10.50;;;18.90;44.70;;;;;;4931686;29;20465;-76
2023/04/10 16:41:59;;;;;;;10.23;9.83;;;18.80;44.60;;;;;;4931049;29;20493;-76
2023/04/10 16:44:26;;;;;;;10.03;9.63;;;18.80;44.90;;;;;;4931206;29;20464;-76
2023/04/10 16:46:52;;;;;;;10.23;9.83;;;18.80;44.70;;;;;;4931040;29;20501;-76
2023/04/10 16:49:21;;;;;;;9.70;9.30;;;18.80;44.90;;;;;;4930885;29;20995;-76
2023/04/10 16:51:47;;;;;;;9.87;9.40;;;18.80;45.20;;;;;;4931219;29;20920;-76
2023/04/10 16:54:15;;;;;;;11.10;10.70;;;18.70;45.80;;;;;;4931387;29;20999;-76
2023/04/10 16:56:42;;;;;;;10.50;10.10;;;18.60;45.40;;;;;;4931122;29;20453;-75
2023/04/10 16:59:09;;;;;;;10.27;9.90;;;18.60;45.20;;;;;;4931224;29;20516;-75
2023/04/10 17:01:38;;;;;;;10.80;10.10;;;18.50;45.20;;;;;;4930910;29;20521;-75
2023/04/10 17:04:05;;;;;;;10.60;10.20;;;18.40;45.50;;;;;;4925919;29;21073;-77
2023/04/10 17:06:31;;;;;;;10.80;10.40;;;18.30;45.70;;;;;;4931298;29;20515;-77
2023/04/10 17:08:58;;;;;;;10.17;9.77;;;18.30;46.00;;;;;;4931341;29;20445;-75
2023/04/10 17:11:26;;;;;;;9.90;9.20;;;18.20;46.30;;;;;;4931569;29;20461;-77
2023/04/10 17:13:53;;;;;;;9.63;9.33;;;18.10;46.40;;;;;;4931509;29;20454;-75
2023/04/10 17:16:19;;;;;;;11.07;10.67;;;18.10;46.70;;;;;;4931466;29;20809;-76
2023/04/10 17:18:46;;;;;;;11.77;11.27;;;18.00;46.70;;;;;;4931351;29;20457;-75
2023/04/10 17:21:13;;;;;;;12.23;11.73;;;17.90;47.00;;;;;;4930859;29;20508;-76
2023/04/10 17:23:40;;;;;;;10.93;10.53;;;17.90;47.30;;;;;;4930709;29;20457;-76
2023/04/10 17:26:13;;;;;;;11.00;10.60;;;17.80;47.40;;;;;;4930595;29;20476;-76
2023/04/10 17:28:43;;;;;;;11.13;10.63;;;17.80;47.80;;;;;;4930708;29;20995;-75
2023/04/10 17:31:10;;;;;;;10.40;10.00;;;17.80;47.70;;;;;;4930981;29;20507;-75